Time,TemperatureF,DewpointF,PressureIn,WindDirection,WindDirectionDegrees,WindSpeedMPH,WindSpeedGustMPH,Humidity,HourlyPrecipIn,Conditions,Clouds,dailyrainin,SoftwareType,DateUTC
2013-03-09 00:02:00,39.0,28.2,30.30,North,0,3.0,11.0,65,0.00,,,0.00,meteohub,2013-03-09 05:02:00,
2013-03-09 00:12:00,39.0,28.6,30.30,NW,315,3.0,7.0,66,0.00,,,0.00,meteohub,2013-03-09 05:12:00,
2013-03-09 00:22:00,37.9,27.7,30.30,North,0,7.0,11.0,66,0.00,,,0.00,meteohub,2013-03-09 05:22:00,
2013-03-09 00:32:00,37.9,27.7,30.31,NW,315,3.0,11.0,66,0.00,,,0.00,meteohub,2013-03-09 05:32:00,
2013-03-09 00:42:00,37.9,28.0,30.31,North,0,2.0,7.0,67,0.00,,,0.00,meteohub,2013-03-09 05:42:00,
2013-03-09 00:52:00,37.9,28.0,30.32,NW,315,1.0,8.0,67,0.00,,,0.00,meteohub,2013-03-09 05:52:00,
2013-03-09 01:02:00,37.9,28.4,30.31,North,0,4.0,7.0,68,0.00,,,0.00,meteohub,2013-03-09 06:02:00,
2013-03-09 01:12:00,37.9,28.4,30.32,NW,315,7.0,9.0,68,0.00,,,0.00,meteohub,2013-03-09 06:12:00,
2013-03-09 01:22:00,37.0,27.1,30.32,North,0,3.0,7.0,67,0.00,,,0.00,meteohub,2013-03-09 06:22:00,
2013-03-09 01:32:00,37.0,27.5,30.32,NW,315,4.0,6.0,68,0.00,,,0.00,meteohub,2013-03-09 06:32:00,
2013-03-09 01:42:00,37.0,27.5,30.32,North,0,2.0,6.0,68,0.00,,,0.00,meteohub,2013-03-09 06:42:00,
2013-03-09 01:52:00,37.0,27.5,30.32,NW,315,2.0,6.0,68,0.00,,,0.00,meteohub,2013-03-09 06:52:00,
2013-03-09 02:02:00,36.0,26.4,30.31,NNW,337,3.0,7.0,68,0.00,,,0.00,meteohub,2013-03-09 07:02:00,
2013-03-09 02:12:00,36.0,26.4,30.32,NW,315,2.0,7.0,68,0.00,,,0.00,meteohub,2013-03-09 07:12:00,
2013-03-09 02:22:00,36.0,26.4,30.31,NW,315,2.0,7.0,68,0.00,,,0.00,meteohub,2013-03-09 07:22:00,
2013-03-09 02:32:00,36.0,26.4,30.31,North,0,2.0,7.0,68,0.00,,,0.00,meteohub,2013-03-09 07:32:00,
2013-03-09 02:42:00,36.0,26.4,30.31,NW,315,4.0,8.0,68,0.00,,,0.00,meteohub,2013-03-09 07:42:00,
2013-03-09 02:52:00,36.0,26.4,30.31,NW,315,2.0,7.0,68,0.00,,,0.00,meteohub,2013-03-09 07:52:00,
2013-03-09 03:02:00,36.0,26.1,30.30,NW,315,4.0,8.0,67,0.00,,,0.00,meteohub,2013-03-09 08:02:00,
2013-03-09 03:12:00,36.0,26.4,30.31,NW,315,4.0,11.0,68,0.00,,,0.00,meteohub,2013-03-09 08:12:00,
2013-03-09 03:22:00,35.1,25.5,30.31,NW,315,5.0,7.0,68,0.00,,,0.00,meteohub,2013-03-09 08:22:00,
2013-03-09 03:32:00,35.1,25.9,30.31,North,0,3.0,8.0,69,0.00,,,0.00,meteohub,2013-03-09 08:32:00,
2013-03-09 03:42:00,35.1,25.9,30.31,North,0,1.0,7.0,69,0.00,,,0.00,meteohub,2013-03-09 08:42:00,
2013-03-09 03:52:00,35.1,25.9,30.31,North,0,2.0,7.0,69,0.00,,,0.00,meteohub,2013-03-09 08:52:00,
2013-03-09 04:02:00,35.1,26.2,30.30,NW,315,2.0,7.0,70,0.00,,,0.00,meteohub,2013-03-09 09:02:00,
2013-03-09 04:12:00,34.0,25.5,30.30,NW,315,4.0,6.0,71,0.00,,,0.00,meteohub,2013-03-09 09:12:00,
2013-03-09 04:22:00,34.0,25.5,30.30,NW,315,3.0,6.0,71,0.00,,,0.00,meteohub,2013-03-09 09:22:00,
2013-03-09 04:32:00,34.0,25.9,30.30,NNW,337,1.0,6.0,72,0.00,,,0.00,meteohub,2013-03-09 09:32:00,
2013-03-09 04:42:00,34.0,25.9,30.31,NW,315,6.0,9.0,72,0.00,,,0.00,meteohub,2013-03-09 09:42:00,
2013-03-09 04:52:00,34.0,25.5,30.31,North,0,5.0,9.0,71,0.00,,,0.00,meteohub,2013-03-09 09:52:00,
2013-03-09 05:02:00,34.0,25.5,30.32,NNW,337,4.0,11.0,71,0.00,,,0.00,meteohub,2013-03-09 10:02:00,
2013-03-09 05:12:00,34.0,25.5,30.32,North,0,6.0,11.0,71,0.00,,,0.00,meteohub,2013-03-09 10:12:00,
2013-03-09 05:22:00,34.0,25.2,30.31,NW,315,3.0,12.0,70,0.00,,,0.00,meteohub,2013-03-09 10:22:00,
2013-03-09 05:32:00,34.0,25.2,30.32,North,0,2.0,12.0,70,0.00,,,0.00,meteohub,2013-03-09 10:32:00,
2013-03-09 05:42:00,33.1,24.6,30.32,NW,315,7.0,9.0,71,0.00,,,0.00,meteohub,2013-03-09 10:42:00,
2013-03-09 05:52:00,33.1,24.6,30.32,NNW,337,4.0,9.0,71,0.00,,,0.00,meteohub,2013-03-09 10:52:00,
2013-03-09 06:02:00,33.1,24.6,30.32,NW,315,10.0,10.0,71,0.00,,,0.00,meteohub,2013-03-09 11:02:00,
2013-03-09 06:12:00,33.1,24.4,30.32,NW,315,3.0,13.0,70,0.00,,,0.00,meteohub,2013-03-09 11:12:00,
2013-03-09 06:22:00,33.1,24.6,30.32,North,0,2.0,13.0,71,0.00,,,0.00,meteohub,2013-03-09 11:22:00,
2013-03-09 06:32:00,33.1,24.6,30.32,NNW,337,5.0,9.0,71,0.00,,,0.00,meteohub,2013-03-09 11:32:00,
2013-03-09 06:42:00,33.1,24.6,30.33,NNW,337,1.0,9.0,71,0.00,,,0.00,meteohub,2013-03-09 11:42:00,
2013-03-09 06:52:00,33.1,24.6,30.33,NNW,337,4.0,11.0,71,0.00,,,0.00,meteohub,2013-03-09 11:52:00,
2013-03-09 07:02:00,33.1,24.4,30.34,NW,315,2.0,10.0,70,0.00,,,0.00,meteohub,2013-03-09 12:02:00,
2013-03-09 07:12:00,34.0,24.8,30.34,NW,315,3.0,11.0,69,0.00,,,0.00,meteohub,2013-03-09 12:12:00,
2013-03-09 07:22:00,34.0,24.3,30.35,NW,315,2.0,11.0,67,0.00,,,0.00,meteohub,2013-03-09 12:22:00,
2013-03-09 07:32:00,35.1,24.4,30.35,North,0,3.0,10.0,65,0.00,,,0.00,meteohub,2013-03-09 12:32:00,
2013-03-09 07:42:00,35.1,24.4,30.36,North,0,3.0,12.0,65,0.00,,,0.00,meteohub,2013-03-09 12:42:00,
2013-03-09 07:52:00,36.0,24.3,30.36,North,0,6.0,9.0,62,0.00,,,0.00,meteohub,2013-03-09 12:52:00,
2013-03-09 08:02:00,37.0,24.4,30.36,NE,45,4.0,12.0,60,0.00,,,0.00,meteohub,2013-03-09 13:02:00,
2013-03-09 08:12:00,37.0,24.1,30.37,North,0,2.0,12.0,59,0.00,,,0.00,meteohub,2013-03-09 13:12:00,
2013-03-09 08:22:00,37.9,24.1,30.37,WNW,292,5.0,11.0,57,0.00,,,0.00,meteohub,2013-03-09 13:22:00,
2013-03-09 08:32:00,39.0,24.3,30.38,North,0,5.0,11.0,55,0.00,,,0.00,meteohub,2013-03-09 13:32:00,
2013-03-09 08:42:00,39.0,23.7,30.38,NW,315,6.0,12.0,54,0.00,,,0.00,meteohub,2013-03-09 13:42:00,
2013-03-09 08:52:00,39.9,24.6,30.39,North,0,2.0,12.0,54,0.00,,,0.00,meteohub,2013-03-09 13:52:00,
2013-03-09 09:02:00,39.9,23.7,30.40,North,0,5.0,12.0,52,0.00,,,0.00,meteohub,2013-03-09 14:02:00,
2013-03-09 09:12:00,41.0,24.8,30.40,North,0,2.0,12.0,52,0.00,,,0.00,meteohub,2013-03-09 14:12:00,
2013-03-09 09:22:00,41.0,23.7,30.40,North,0,2.0,12.0,50,0.00,,,0.00,meteohub,2013-03-09 14:22:00,
2013-03-09 09:32:00,42.1,24.8,30.41,NW,315,2.0,12.0,50,0.00,,,0.00,meteohub,2013-03-09 14:32:00,
2013-03-09 09:42:00,42.1,23.7,30.41,NW,315,7.0,11.0,48,0.00,,,0.00,meteohub,2013-03-09 14:42:00,
2013-03-09 09:52:00,43.0,24.1,30.41,North,0,4.0,12.0,47,0.00,,,0.00,meteohub,2013-03-09 14:52:00,
2013-03-09 10:02:00,44.1,24.1,30.41,North,0,1.0,11.0,45,0.00,,,0.00,meteohub,2013-03-09 15:02:00,
2013-03-09 10:12:00,45.0,23.7,30.41,NW,315,2.0,8.0,43,0.00,,,0.00,meteohub,2013-03-09 15:12:00,
2013-03-09 10:22:00,46.0,24.8,30.41,NW,315,9.0,9.0,43,0.00,,,0.00,meteohub,2013-03-09 15:22:00,
2013-03-09 10:32:00,46.0,23.0,30.41,NW,315,4.0,9.0,40,0.00,,,0.00,meteohub,2013-03-09 15:32:00,
2013-03-09 10:42:00,46.9,23.2,30.41,WNW,292,2.0,9.0,39,0.00,,,0.00,meteohub,2013-03-09 15:42:00,
2013-03-09 10:52:00,48.0,24.3,30.41,NE,45,2.0,9.0,39,0.00,,,0.00,meteohub,2013-03-09 15:52:00,
2013-03-09 11:02:00,48.9,23.7,30.41,North,0,4.0,7.0,37,0.00,,,0.00,meteohub,2013-03-09 16:02:00,
2013-03-09 11:12:00,48.9,23.7,30.41,North,0,3.0,11.0,37,0.00,,,0.00,meteohub,2013-03-09 16:12:00,
2013-03-09 11:22:00,50.0,23.4,30.41,NE,45,1.0,11.0,35,0.00,,,0.00,meteohub,2013-03-09 16:22:00,
2013-03-09 11:32:00,50.0,24.1,30.40,North,0,1.0,9.0,36,0.00,,,0.00,meteohub,2013-03-09 16:32:00,
2013-03-09 11:42:00,51.1,23.7,30.41,NE,45,2.0,9.0,34,0.00,,,0.00,meteohub,2013-03-09 16:42:00,
2013-03-09 11:52:00,52.0,23.7,30.41,NW,315,1.0,5.0,33,0.00,,,0.00,meteohub,2013-03-09 16:52:00,
2013-03-09 12:02:00,53.1,23.9,30.41,NW,315,0.0,6.0,32,0.00,,,0.00,meteohub,2013-03-09 17:02:00,
2013-03-09 12:12:00,53.1,23.2,30.40,NW,315,4.0,6.0,31,0.00,,,0.00,meteohub,2013-03-09 17:12:00,
2013-03-09 12:22:00,53.1,23.2,30.40,North,0,2.0,6.0,31,0.00,,,0.00,meteohub,2013-03-09 17:22:00,
2013-03-09 12:32:00,54.0,24.8,30.40,North,0,4.0,8.0,32,0.00,,,0.00,meteohub,2013-03-09 17:32:00,
2013-03-09 12:42:00,54.0,22.5,30.40,West,270,1.0,7.0,29,0.00,,,0.00,meteohub,2013-03-09 17:42:00,
2013-03-09 12:52:00,55.0,23.4,30.40,West,270,4.0,6.0,29,0.00,,,0.00,meteohub,2013-03-09 17:52:00,
2013-03-09 13:02:00,55.0,21.7,30.40,North,0,1.0,6.0,27,0.00,,,0.00,meteohub,2013-03-09 18:02:00,
2013-03-09 13:12:00,55.9,22.5,30.39,NW,315,2.0,7.0,27,0.00,,,0.00,meteohub,2013-03-09 18:12:00,
2013-03-09 13:22:00,55.9,21.6,30.39,WNW,292,5.0,9.0,26,0.00,,,0.00,meteohub,2013-03-09 18:22:00,
2013-03-09 13:32:00,55.9,22.5,30.38,South,180,0.0,9.0,27,0.00,,,0.00,meteohub,2013-03-09 18:32:00,
2013-03-09 13:42:00,55.9,20.7,30.38,SE,135,1.0,6.0,25,0.00,,,0.00,meteohub,2013-03-09 18:42:00,
2013-03-09 13:52:00,57.0,22.5,30.38,NW,315,2.0,6.0,26,0.00,,,0.00,meteohub,2013-03-09 18:52:00,
2013-03-09 14:02:00,57.9,22.3,30.38,WNW,292,0.0,6.0,25,0.00,,,0.00,meteohub,2013-03-09 19:02:00,
2013-03-09 14:12:00,59.0,23.2,30.39,NW,315,2.0,6.0,25,0.00,,,0.00,meteohub,2013-03-09 19:12:00,
2013-03-09 14:22:00,59.0,22.3,30.39,NW,315,2.0,6.0,24,0.00,,,0.00,meteohub,2013-03-09 19:22:00,
2013-03-09 14:32:00,59.0,22.3,30.39,NW,315,2.0,6.0,24,0.00,,,0.00,meteohub,2013-03-09 19:32:00,
2013-03-09 14:42:00,59.0,21.2,30.40,SSW,202,2.0,6.0,23,0.00,,,0.00,meteohub,2013-03-09 19:42:00,
2013-03-09 14:52:00,60.1,22.1,30.40,West,270,5.0,7.0,23,0.00,,,0.00,meteohub,2013-03-09 19:52:00,
2013-03-09 15:02:00,60.1,22.1,30.40,NW,315,2.0,7.0,23,0.00,,,0.00,meteohub,2013-03-09 20:02:00,
2013-03-09 15:12:00,60.1,22.1,30.40,North,0,1.0,7.0,23,0.00,,,0.00,meteohub,2013-03-09 20:12:00,
2013-03-09 15:22:00,60.1,23.2,30.40,ESE,112,1.0,3.0,24,0.00,,,0.00,meteohub,2013-03-09 20:22:00,
2013-03-09 15:32:00,60.1,23.2,30.40,WSW,247,2.0,6.0,24,0.00,,,0.00,meteohub,2013-03-09 20:32:00,
2013-03-09 15:42:00,59.0,23.2,30.40,NW,315,2.0,7.0,25,0.00,,,0.00,meteohub,2013-03-09 20:42:00,
2013-03-09 15:52:00,59.0,23.2,30.39,North,0,2.0,6.0,25,0.00,,,0.00,meteohub,2013-03-09 20:52:00,
2013-03-09 16:02:00,59.0,23.2,30.39,WNW,292,2.0,7.0,25,0.00,,,0.00,meteohub,2013-03-09 21:02:00,
2013-03-09 16:12:00,57.9,23.2,30.39,WNW,292,2.0,7.0,26,0.00,,,0.00,meteohub,2013-03-09 21:12:00,
2013-03-09 16:22:00,57.9,22.3,30.39,NW,315,2.0,5.0,25,0.00,,,0.00,meteohub,2013-03-09 21:22:00,
2013-03-09 16:32:00,57.9,23.2,30.38,NE,45,2.0,5.0,26,0.00,,,0.00,meteohub,2013-03-09 21:32:00,
2013-03-09 16:42:00,57.9,23.2,30.38,North,0,2.0,4.0,26,0.00,,,0.00,meteohub,2013-03-09 21:42:00,
2013-03-09 16:52:00,57.9,23.2,30.38,West,270,0.0,4.0,26,0.00,,,0.00,meteohub,2013-03-09 21:52:00,
2013-03-09 17:02:00,57.9,23.2,30.38,North,0,2.0,4.0,26,0.00,,,0.00,meteohub,2013-03-09 22:02:00,
2013-03-09 17:12:00,57.9,23.2,30.38,WNW,292,2.0,4.0,26,0.00,,,0.00,meteohub,2013-03-09 22:12:00,
2013-03-09 17:22:00,57.9,24.1,30.38,NW,315,2.0,4.0,27,0.00,,,0.00,meteohub,2013-03-09 22:22:00,
2013-03-09 17:32:00,57.9,25.0,30.37,NW,315,2.0,5.0,28,0.00,,,0.00,meteohub,2013-03-09 22:32:00,
2013-03-09 17:42:00,57.9,24.1,30.38,North,0,2.0,4.0,27,0.00,,,0.00,meteohub,2013-03-09 22:42:00,
2013-03-09 17:52:00,57.0,23.4,30.38,NNW,337,2.0,4.0,27,0.00,,,0.00,meteohub,2013-03-09 22:52:00,
2013-03-09 18:02:00,55.9,24.1,30.38,NW,315,2.0,2.0,29,0.00,,,0.00,meteohub,2013-03-09 23:02:00,
2013-03-09 18:12:00,55.0,24.1,30.37,NW,315,1.0,2.0,30,0.00,,,0.00,meteohub,2013-03-09 23:12:00,
2013-03-09 18:22:00,55.0,25.0,30.37,NW,315,1.0,2.0,31,0.00,,,0.00,meteohub,2013-03-09 23:22:00,
2013-03-09 18:32:00,54.0,25.5,30.37,NW,315,1.0,2.0,33,0.00,,,0.00,meteohub,2013-03-09 23:32:00,
2013-03-09 18:42:00,52.0,24.4,30.36,NW,315,0.0,2.0,34,0.00,,,0.00,meteohub,2013-03-09 23:42:00,
2013-03-09 18:52:00,51.1,24.4,30.36,NW,315,0.0,1.0,35,0.00,,,0.00,meteohub,2013-03-09 23:52:00,
2013-03-09 19:02:00,51.1,25.0,30.36,NW,315,0.0,0.0,36,0.00,,,0.00,meteohub,2013-03-10 00:02:00,
2013-03-09 19:12:00,50.0,24.8,30.36,NW,315,0.0,0.0,37,0.00,,,0.00,meteohub,2013-03-10 00:12:00,
2013-03-09 19:22:00,48.9,23.7,30.36,NW,315,0.0,0.0,37,0.00,,,0.00,meteohub,2013-03-10 00:22:00,
2013-03-09 19:32:00,48.9,23.2,30.36,NW,315,0.0,0.0,36,0.00,,,0.00,meteohub,2013-03-10 00:32:00,
2013-03-09 19:42:00,48.9,23.7,30.36,NW,315,0.0,0.0,37,0.00,,,0.00,meteohub,2013-03-10 00:42:00,
2013-03-09 19:52:00,48.9,23.7,30.36,NW,315,0.0,0.0,37,0.00,,,0.00,meteohub,2013-03-10 00:52:00,
2013-03-09 20:02:00,48.9,23.7,30.36,NW,315,0.0,0.0,37,0.00,,,0.00,meteohub,2013-03-10 01:02:00,
2013-03-09 20:12:00,48.0,23.0,30.35,NW,315,0.0,0.0,37,0.00,,,0.00,meteohub,2013-03-10 01:12:00,
2013-03-09 20:22:00,48.0,23.0,30.36,NW,315,0.0,0.0,37,0.00,,,0.00,meteohub,2013-03-10 01:22:00,
2013-03-09 20:32:00,48.9,23.7,30.35,NW,315,0.0,0.0,37,0.00,,,0.00,meteohub,2013-03-10 01:32:00,
2013-03-09 20:42:00,48.0,23.0,30.36,NW,315,0.0,0.0,37,0.00,,,0.00,meteohub,2013-03-10 01:42:00,
2013-03-09 20:52:00,46.9,23.9,30.36,NW,315,0.0,0.0,40,0.00,,,0.00,meteohub,2013-03-10 01:52:00,
2013-03-09 21:02:00,46.9,23.9,30.36,NW,315,0.0,0.0,40,0.00,,,0.00,meteohub,2013-03-10 02:02:00,
2013-03-09 21:12:00,46.0,23.0,30.36,NW,315,0.0,0.0,40,0.00,,,0.00,meteohub,2013-03-10 02:12:00,
2013-03-09 21:22:00,46.9,22.1,30.36,NW,315,0.0,0.0,37,0.00,,,0.00,meteohub,2013-03-10 02:22:00,
2013-03-09 21:32:00,48.0,23.5,30.36,NW,315,0.0,0.0,38,0.00,,,0.00,meteohub,2013-03-10 02:32:00,
2013-03-09 21:42:00,46.9,23.9,30.36,NW,315,0.0,0.0,40,0.00,,,0.00,meteohub,2013-03-10 02:42:00,
2013-03-09 21:52:00,46.0,24.3,30.36,NW,315,0.0,1.0,42,0.00,,,0.00,meteohub,2013-03-10 02:52:00,
2013-03-09 22:12:00,46.0,23.7,30.36,NW,315,0.0,0.0,41,0.00,,,0.00,meteohub,2013-03-10 03:12:00,
2013-03-09 22:32:00,45.0,22.6,30.36,NW,315,0.0,-999.0,41,0.00,,,0.00,meteohub,2013-03-10 03:32:00,
2013-03-09 22:42:00,45.0,23.7,30.36,NW,315,0.0,0.0,43,0.00,,,0.00,meteohub,2013-03-10 03:42:00,
2013-03-09 22:52:00,45.0,25.0,30.36,NW,315,0.0,0.0,45,0.00,,,0.00,meteohub,2013-03-10 03:52:00,
2013-03-09 23:02:00,45.0,25.0,30.36,NW,315,0.0,0.0,45,0.00,,,0.00,meteohub,2013-03-10 04:02:00,
2013-03-09 23:12:00,43.0,24.1,30.36,NW,315,0.0,0.0,47,0.00,,,0.00,meteohub,2013-03-10 04:12:00,
2013-03-09 23:22:00,43.0,24.6,30.35,NW,315,0.0,0.0,48,0.00,,,0.00,meteohub,2013-03-10 04:22:00,
2013-03-09 23:32:00,42.1,23.4,30.35,NW,315,0.0,0.0,47,0.00,,,0.00,meteohub,2013-03-10 04:32:00,
2013-03-09 23:42:00,42.1,23.7,30.35,NW,315,0.0,0.0,48,0.00,,,0.00,meteohub,2013-03-10 04:42:00,
2013-03-09 23:52:00,43.0,24.6,30.35,NW,315,0.0,0.0,48,0.00,,,0.00,meteohub,2013-03-10 04:52:00,